Madawaska, ME

8:36 PM EDT on August 28, 2016 (GMT -0400)
W1AYX | | Change Station

Elev 545 ft 47.35 °N, 68.28 °W | Updated 10 seconds ago

Overcast
Overcast
63.7 °F
Feels Like 63.7 °F
N
2.2
Wind Variable Wind from SE
Gusts 2.5 mph

Today
High -- | Low -- °F
--% Chance of Precip.
Yesterday
High -- | Low -- °F
Precip. -- in
Pressure 30.06 in
Visibility 10.0 miles
Clouds Mostly Cloudy 3800 ft
Overcast 7000 ft
Dew Point 63 °F
Humidity 96%
Rainfall 0.04 in
Snow Depth Not available.
5:47 AM 7:20 PM
Waning Crescent, 12% visible
METAR KFVE 282353Z AUTO 16010KT 10SM BKN038 OVC070 17/15 A3006 RMK AO2 SLP178 60000 T01720150 10200 20172 56027
Pressure 30.06 in
Visibility 10.0 miles
Clouds Mostly Cloudy 3800 ft
Overcast 7000 ft
Dew Point 63 °F
Humidity 96%
Rainfall 0.04 in
Snow Depth Not available.
5:47 AM 7:20 PM
Waning Crescent, 12% visible
METAR KFVE 282353Z AUTO 16010KT 10SM BKN038 OVC070 17/15 A3006 RMK AO2 SLP178 60000 T01720150 10200 20172 56027

10-Day Weather Forecast

Almanac

Astronomy

Aug. 28, 2016 Rise Set
Actual Time
Civil Twilight
Nautical Twilight
Astronomical Twilight
Moon
Length of Visible Light
Length of Day
Tomorrow will be .
, % of the Moon is Illuminated

Today's Extremes

State Highs State Lows

Community

WunderPhotos

Upload Photos

1,935,743 photos uploaded!

WunderBlog® & News

Nearby

Air Quality

  Air Quality AQ Index Pollutant
Not available.

Snow Depth

Station Depth Elevation

Earthquake Activity

City Distance Mag. Time & Date
Minimum magnitude displayed is 2.5.

Coastal Water Temperatures

Place Temperature

Stations

Nearby Weather Stations

Station Location Temp. Windchill Dew Point Humidity Wind Precip. Elev Updated Type
                   

Watches & Warnings

There are currently no watches in effect.